createdAt,value
2018-10-07T00:02:01.808Z,75.27
2018-10-07T00:04:30.522Z,86.97
2018-10-07T00:06:59.244Z,77.70
2018-10-07T00:09:27.972Z,80.37
2018-10-07T00:11:56.679Z,82.60
2018-10-07T00:14:25.399Z,90.57
2018-10-07T00:16:54.116Z,85.13
2018-10-07T00:19:22.828Z,86.10
2018-10-07T00:21:51.547Z,73.17
2018-10-07T00:24:20.324Z,83.00
2018-10-07T00:26:49.038Z,86.07
2018-10-07T00:29:17.780Z,78.73
2018-10-07T00:31:51.836Z,78.57
2018-10-07T00:34:20.572Z,79.77
2018-10-07T00:36:49.335Z,90.40
2018-10-07T00:39:18.052Z,90.97
2018-10-07T00:41:46.771Z,81.13
2018-10-07T00:44:15.905Z,90.27
2018-10-07T00:46:44.616Z,81.37
2018-10-07T00:49:13.321Z,86.90
2018-10-07T00:51:42.032Z,76.00
2018-10-07T00:54:10.741Z,88.93
2018-10-07T00:56:39.456Z,84.27
2018-10-07T00:59:08.184Z,85.17
2018-10-07T01:01:36.903Z,87.63
2018-10-07T01:04:05.676Z,79.63
2018-10-07T01:06:34.351Z,84.97
2018-10-07T01:09:03.660Z,82.50
2018-10-07T01:11:32.379Z,82.73
2018-10-07T01:14:01.099Z,76.70
2018-10-07T01:16:29.807Z,81.73
2018-10-07T01:18:58.513Z,78.97
2018-10-07T01:21:27.240Z,77.63
2018-10-07T01:23:56.223Z,88.67
2018-10-07T01:26:24.924Z,87.77
2018-10-07T01:28:53.639Z,88.33
2018-10-07T01:31:22.344Z,83.00
2018-10-07T01:33:51.052Z,81.00
2018-10-07T01:36:20.105Z,80.00
2018-10-07T01:38:48.819Z,83.97
2018-10-07T01:41:17.560Z,73.67
2018-10-07T01:43:46.490Z,80.07
2018-10-07T01:46:15.364Z,73.93
2018-10-07T01:48:44.088Z,70.83
2018-10-07T01:51:12.808Z,73.77
2018-10-07T01:53:41.529Z,69.97
2018-10-07T01:56:10.368Z,65.93
2018-10-07T01:58:39.108Z,63.40
2018-10-07T02:01:07.815Z,65.57
2018-10-07T02:03:36.528Z,61.17
2018-10-07T02:06:05.241Z,61.70
2018-10-07T02:08:34.067Z,70.83
2018-10-07T02:11:02.790Z,60.83
2018-10-07T02:13:31.508Z,64.50
2018-10-07T02:16:00.208Z,57.60
2018-10-07T02:18:28.916Z,54.87
2018-10-07T02:20:57.625Z,56.60
2018-10-07T02:23:26.348Z,56.10
2018-10-07T02:25:55.084Z,66.27
2018-10-07T02:28:23.783Z,60.23
2018-10-07T02:30:52.493Z,58.53
2018-10-07T02:33:21.198Z,52.07
2018-10-07T02:35:49.899Z,49.50
2018-10-07T02:38:18.608Z,53.57
2018-10-07T02:40:47.320Z,56.90
2018-10-07T02:43:16.033Z,47.97
2018-10-07T02:45:44.748Z,50.10
2018-10-07T02:48:13.483Z,47.43
2018-10-07T02:50:42.199Z,47.43
2018-10-07T02:53:10.946Z,47.27
2018-10-07T02:55:39.636Z,47.63
2018-10-07T02:58:08.959Z,48.90
2018-10-07T03:00:37.777Z,53.50
2018-10-07T03:03:06.709Z,45.13
2018-10-07T03:05:35.395Z,45.77
2018-10-07T03:08:04.103Z,49.60
2018-10-07T03:10:32.824Z,45.40
2018-10-07T03:13:01.536Z,48.33
2018-10-07T03:15:30.238Z,47.67
2018-10-07T03:17:58.948Z,46.30
2018-10-07T03:20:27.656Z,45.30
2018-10-07T03:22:56.440Z,47.50
2018-10-07T03:25:25.151Z,44.37
2018-10-07T03:27:53.861Z,43.57
2018-10-07T03:30:22.581Z,45.00
2018-10-07T03:32:51.293Z,44.93
2018-10-07T03:35:19.997Z,44.87
2018-10-07T03:37:48.704Z,44.53
2018-10-07T03:40:17.423Z,43.37
2018-10-07T03:42:46.140Z,43.40
2018-10-07T03:45:14.845Z,42.40
2018-10-07T03:47:43.561Z,42.90
2018-10-07T03:50:12.268Z,43.00
2018-10-07T03:52:40.980Z,42.63
2018-10-07T03:55:09.692Z,42.33
2018-10-07T03:57:38.415Z,43.13
2018-10-07T04:00:07.142Z,42.03
2018-10-07T04:02:35.854Z,42.73
2018-10-07T04:05:04.919Z,42.27
2018-10-07T04:07:33.635Z,41.87
2018-10-07T04:10:02.358Z,42.43
2018-10-07T04:12:31.088Z,41.77
2018-10-07T04:14:59.808Z,40.93
2018-10-07T04:17:28.524Z,41.70
2018-10-07T04:19:57.236Z,42.50
2018-10-07T04:22:28.208Z,40.93
2018-10-07T04:24:58.920Z,41.67
2018-10-07T04:27:27.640Z,41.57
2018-10-07T04:29:56.352Z,41.77
2018-10-07T04:32:25.081Z,41.97
2018-10-07T04:34:53.805Z,41.60
2018-10-07T04:37:22.839Z,41.47
2018-10-07T04:39:51.650Z,41.33
2018-10-07T04:42:20.268Z,41.07
2018-10-07T04:44:48.975Z,40.93
2018-10-07T04:47:17.672Z,40.77
2018-10-07T04:49:46.388Z,41.83
2018-10-07T04:52:15.091Z,40.90
2018-10-07T04:54:43.811Z,41.13
2018-10-07T04:57:12.524Z,40.63
2018-10-07T04:59:41.236Z,41.03
2018-10-07T05:02:09.957Z,40.63
2018-10-07T05:04:38.732Z,41.27
2018-10-07T05:07:07.435Z,41.20
2018-10-07T05:09:36.571Z,41.13
2018-10-07T05:12:06.718Z,41.20
2018-10-07T05:14:35.359Z,41.30
2018-10-07T05:17:04.336Z,41.13
2018-10-07T05:19:33.048Z,42.13
2018-10-07T05:22:01.760Z,41.70
2018-10-07T05:24:30.489Z,42.10
2018-10-07T05:26:59.188Z,42.07
2018-10-07T05:29:27.897Z,42.40
2018-10-07T05:31:56.622Z,43.10
2018-10-07T05:34:25.343Z,42.70
2018-10-07T05:36:54.063Z,42.37
2018-10-07T05:39:22.786Z,42.23
2018-10-07T05:41:51.496Z,42.97
2018-10-07T05:44:20.325Z,42.17
2018-10-07T05:46:48.948Z,42.60
2018-10-07T05:49:17.693Z,42.33
2018-10-07T05:51:46.417Z,44.10
2018-10-07T05:54:15.127Z,42.67
2018-10-07T05:56:43.846Z,42.10
2018-10-07T05:59:12.539Z,42.03
2018-10-07T06:01:43.602Z,44.67
2018-10-07T06:04:34.168Z,43.83
2018-10-07T06:07:03.980Z,47.50
2018-10-07T06:09:34.149Z,42.17
2018-10-07T06:12:02.904Z,42.27
2018-10-07T06:14:43.059Z,43.43
2018-10-07T06:17:11.760Z,41.80
2018-10-07T06:19:40.475Z,42.63
2018-10-07T06:22:09.196Z,41.93
2018-10-07T06:24:37.904Z,42.77
2018-10-07T06:27:06.996Z,42.73
2018-10-07T06:29:35.708Z,42.60
2018-10-07T06:32:04.424Z,42.67
2018-10-07T06:34:33.160Z,42.30
2018-10-07T06:37:01.874Z,42.20
2018-10-07T06:39:30.584Z,42.57
2018-10-07T06:41:59.336Z,42.33
2018-10-07T06:44:28.048Z,45.77
2018-10-07T06:46:56.766Z,41.93
2018-10-07T06:49:25.468Z,42.40
2018-10-07T06:51:54.187Z,42.70
2018-10-07T06:54:22.897Z,43.13
2018-10-07T06:56:51.640Z,43.10
2018-10-07T06:59:20.357Z,42.50
2018-10-07T07:01:49.069Z,42.60
2018-10-07T07:04:17.960Z,42.47
2018-10-07T07:06:46.672Z,42.00
2018-10-07T07:09:15.392Z,42.13
2018-10-07T07:11:44.169Z,42.50
2018-10-07T07:14:12.892Z,42.17
2018-10-07T07:16:41.592Z,46.53
2018-10-07T07:19:10.308Z,43.23
2018-10-07T07:21:39.016Z,42.80
2018-10-07T07:24:07.728Z,43.20
2018-10-07T07:26:36.452Z,42.77
2018-10-07T07:29:05.170Z,42.50
2018-10-07T07:31:33.997Z,42.27
2018-10-07T07:34:02.619Z,42.43
2018-10-07T07:36:31.328Z,42.27
2018-10-07T07:39:00.044Z,42.23
2018-10-07T07:41:28.791Z,42.10
2018-10-07T07:43:57.508Z,42.57
2018-10-07T07:46:26.236Z,43.33
2018-10-07T07:49:19.974Z,43.20
2018-10-07T07:51:48.948Z,47.63
2018-10-07T07:54:17.676Z,44.47
2018-10-07T07:56:46.379Z,43.97
2018-10-07T07:59:15.091Z,43.93
2018-10-07T08:01:43.796Z,46.83
2018-10-07T08:04:12.508Z,44.47
2018-10-07T08:06:41.228Z,47.37
2018-10-07T08:09:10.876Z,45.40
2018-10-07T08:11:39.597Z,43.77
2018-10-07T08:14:08.312Z,43.73
2018-10-07T08:16:37.027Z,43.93
2018-10-07T08:19:05.753Z,43.87
2018-10-07T08:21:34.500Z,44.27
2018-10-07T08:24:03.208Z,44.40
2018-10-07T08:26:31.941Z,45.23
2018-10-07T08:29:00.648Z,44.93
2018-10-07T08:31:29.368Z,44.03
2018-10-07T08:33:58.091Z,44.70
2018-10-07T08:36:26.804Z,44.90
2018-10-07T08:38:55.521Z,44.00
2018-10-07T08:41:24.227Z,44.53
2018-10-07T08:43:52.924Z,44.23
2018-10-07T08:46:21.648Z,44.73
2018-10-07T08:48:50.358Z,45.30
2018-10-07T08:51:19.233Z,45.00
2018-10-07T08:53:47.980Z,45.33
2018-10-07T08:56:16.715Z,45.50
2018-10-07T08:58:45.420Z,44.90
2018-10-07T09:01:14.240Z,46.07
2018-10-07T09:03:42.964Z,45.73
2018-10-07T09:06:11.680Z,46.17
2018-10-07T09:08:40.440Z,46.57
2018-10-07T09:11:09.120Z,45.57
2018-10-07T09:13:37.860Z,45.50
2018-10-07T09:16:06.598Z,47.27
2018-10-07T09:18:35.324Z,45.30
2018-10-07T09:21:04.652Z,44.97
2018-10-07T09:23:33.748Z,44.87
2018-10-07T09:26:02.485Z,46.00
2018-10-07T09:28:31.214Z,46.80
2018-10-07T09:31:00.021Z,45.27
2018-10-07T09:33:28.739Z,45.17
2018-10-07T09:35:57.452Z,44.93
2018-10-07T09:38:26.260Z,45.03
2018-10-07T09:40:54.972Z,44.47
2018-10-07T09:43:23.695Z,45.73
2018-10-07T09:45:52.436Z,44.80
2018-10-07T09:48:21.156Z,45.20
2018-10-07T09:50:49.897Z,50.60
2018-10-07T09:53:18.622Z,47.30
2018-10-07T09:55:47.365Z,45.30
2018-10-07T09:58:16.106Z,45.70
2018-10-07T10:00:44.864Z,45.60
2018-10-07T10:03:13.576Z,47.43
2018-10-07T10:05:42.283Z,45.27
2018-10-07T10:08:11.013Z,46.07
2018-10-07T10:10:39.724Z,45.37
2018-10-07T10:13:08.512Z,45.30
2018-10-07T10:15:37.223Z,46.80
2018-10-07T10:18:08.017Z,45.53
2018-10-07T10:20:48.924Z,46.00
2018-10-07T10:25:32.272Z,48.17
2018-10-07T10:29:13.412Z,45.03
2018-10-07T10:32:54.396Z,46.90
2018-10-07T10:35:29.368Z,47.13
2018-10-07T10:38:17.943Z,46.00
2018-10-07T10:40:49.413Z,45.73
2018-10-07T10:43:24.712Z,45.43
2018-10-07T10:45:55.289Z,45.37
2018-10-07T10:48:37.811Z,48.13
2018-10-07T10:53:21.576Z,46.93
2018-10-07T10:55:58.805Z,61.47
2018-10-07T10:58:37.151Z,54.80
2018-10-07T11:03:21.448Z,55.40
2018-10-07T11:08:05.876Z,45.90
2018-10-07T11:10:43.384Z,45.17
2018-10-07T11:13:54.561Z,51.70
2018-10-07T11:16:32.540Z,45.93
2018-10-07T11:21:11.416Z,46.50
2018-10-07T11:23:44.356Z,48.67
2018-10-07T11:26:17.962Z,46.67
2018-10-07T11:28:59.270Z,45.87
2018-10-07T11:31:36.836Z,46.43
2018-10-07T11:34:21.822Z,48.00
2018-10-07T11:36:57.636Z,50.20
2018-10-07T11:39:42.664Z,47.20
2018-10-07T11:42:14.489Z,48.30
2018-10-07T11:45:00.004Z,46.00
2018-10-07T11:48:36.128Z,46.07
2018-10-07T11:53:14.016Z,48.63
2018-10-07T11:55:43.097Z,45.40
2018-10-07T11:58:11.784Z,46.40
2018-10-07T12:00:40.504Z,45.83
2018-10-07T12:03:09.253Z,47.03
2018-10-07T12:05:37.984Z,46.27
2018-10-07T12:08:06.708Z,45.73
2018-10-07T12:10:35.428Z,45.13
2018-10-07T12:13:04.153Z,45.77
2018-10-07T12:15:32.861Z,45.37
2018-10-07T12:18:01.576Z,45.33
2018-10-07T12:20:30.287Z,45.77
2018-10-07T12:22:59.048Z,45.23
2018-10-07T12:25:27.800Z,45.37
2018-10-07T12:27:56.524Z,45.40
2018-10-07T12:30:25.236Z,45.73
2018-10-07T12:32:53.969Z,48.77
2018-10-07T12:35:22.668Z,44.97
2018-10-07T12:37:51.591Z,45.10
2018-10-07T12:40:20.308Z,45.33
2018-10-07T12:42:49.045Z,45.33
2018-10-07T12:45:17.796Z,45.03
2018-10-07T12:47:46.549Z,45.57
2018-10-07T12:50:15.265Z,46.93
2018-10-07T12:52:44.200Z,45.33
2018-10-07T12:55:12.908Z,45.17
2018-10-07T12:57:41.630Z,45.80
2018-10-07T13:00:10.360Z,45.03
2018-10-07T13:02:39.080Z,45.00
2018-10-07T13:05:07.804Z,45.33
2018-10-07T13:07:36.517Z,45.63
2018-10-07T13:10:05.607Z,45.33
2018-10-07T13:12:34.292Z,45.43
2018-10-07T13:15:03.028Z,45.13
2018-10-07T13:17:31.748Z,45.30
2018-10-07T13:20:00.456Z,45.20
2018-10-07T13:22:29.164Z,50.47
2018-10-07T13:24:57.904Z,45.13
2018-10-07T13:27:26.649Z,45.17
2018-10-07T13:30:15.675Z,52.83
2018-10-07T13:32:44.388Z,46.10
2018-10-07T13:35:13.139Z,46.57
2018-10-07T13:37:41.853Z,45.57
2018-10-07T13:40:10.572Z,45.00
2018-10-07T13:42:39.291Z,50.50
2018-10-07T13:45:08.619Z,45.37
2018-10-07T13:47:37.568Z,45.47
2018-10-07T13:50:06.784Z,44.70
2018-10-07T13:52:35.496Z,48.80
2018-10-07T13:55:04.472Z,45.33
2018-10-07T13:57:33.448Z,44.90
2018-10-07T14:00:02.220Z,46.37
2018-10-07T14:02:30.936Z,45.10
2018-10-07T14:04:59.748Z,44.93
2018-10-07T14:07:29.234Z,45.37
2018-10-07T14:10:03.040Z,45.57
2018-10-07T14:12:31.769Z,49.90
2018-10-07T14:15:00.492Z,45.97
2018-10-07T14:17:29.204Z,45.40
2018-10-07T14:19:57.928Z,46.73
2018-10-07T14:22:26.809Z,45.50
2018-10-07T14:24:55.528Z,54.77
2018-10-07T14:27:24.260Z,45.20
2018-10-07T14:29:52.988Z,46.17
2018-10-07T14:32:21.868Z,45.03
2018-10-07T14:34:50.611Z,47.57
2018-10-07T14:37:19.328Z,45.10
2018-10-07T14:39:48.084Z,45.07
2018-10-07T14:42:16.809Z,46.47
2018-10-07T14:44:45.607Z,45.17
2018-10-07T14:47:14.335Z,45.23
2018-10-07T14:49:43.078Z,46.13
2018-10-07T14:52:13.512Z,45.40
2018-10-07T14:54:42.190Z,45.20
2018-10-07T14:57:10.912Z,44.80
2018-10-07T14:59:39.653Z,44.90
2018-10-07T15:04:43.728Z,47.20
2018-10-07T15:07:12.448Z,45.10
2018-10-07T15:09:41.180Z,45.27
2018-10-07T15:12:09.876Z,44.80
2018-10-07T15:14:38.624Z,46.87
2018-10-07T15:17:07.331Z,45.13
2018-10-07T15:19:36.051Z,45.03
2018-10-07T15:22:04.755Z,45.10
2018-10-07T15:24:33.467Z,44.90
2018-10-07T15:27:02.268Z,46.27
2018-10-07T15:29:35.741Z,45.07
2018-10-07T15:32:04.499Z,44.67
2018-10-07T15:34:33.208Z,45.63
2018-10-07T15:37:01.924Z,44.60
2018-10-07T15:39:30.636Z,47.20
2018-10-07T15:41:59.372Z,45.00
2018-10-07T15:44:28.084Z,45.77
2018-10-07T15:46:56.788Z,44.70
2018-10-07T15:49:25.509Z,45.07
2018-10-07T15:51:54.223Z,44.47
2018-10-07T15:54:22.928Z,44.50
2018-10-07T15:56:51.781Z,44.87
2018-10-07T15:59:20.364Z,50.07
2018-10-07T16:01:49.079Z,44.93
2018-10-07T16:04:17.812Z,45.73
2018-10-07T16:06:46.522Z,46.17
2018-10-07T16:09:15.236Z,44.13
2018-10-07T16:11:43.960Z,45.10
2018-10-07T16:14:12.670Z,45.23
2018-10-07T16:16:41.424Z,44.40
2018-10-07T16:19:10.136Z,44.97
2018-10-07T16:21:38.856Z,46.43
2018-10-07T16:24:07.564Z,44.50
2018-10-07T16:26:36.394Z,63.93
2018-10-07T16:29:05.023Z,45.07
2018-10-07T16:31:33.753Z,48.13
2018-10-07T16:34:02.466Z,44.80
2018-10-07T16:36:31.293Z,44.47
2018-10-07T16:39:00.027Z,44.57
2018-10-07T16:41:28.720Z,46.20
2018-10-07T16:43:57.437Z,44.70
2018-10-07T16:46:26.160Z,47.30
2018-10-07T16:48:54.896Z,44.40
2018-10-07T16:51:23.626Z,45.13
2018-10-07T16:53:52.340Z,44.47
2018-10-07T16:56:21.983Z,44.67
2018-10-07T16:58:50.699Z,48.93
2018-10-07T17:01:19.468Z,45.17
2018-10-07T17:03:48.183Z,44.93
2018-10-07T17:06:16.905Z,45.63
2018-10-07T17:08:45.620Z,44.13
2018-10-07T17:11:14.328Z,48.97
2018-10-07T17:14:06.528Z,49.33
2018-10-07T17:16:36.303Z,44.97
2018-10-07T17:19:05.173Z,44.43
2018-10-07T17:21:33.910Z,45.13
2018-10-07T17:24:02.652Z,44.43
2018-10-07T17:26:32.380Z,44.87
2018-10-07T17:29:01.092Z,44.40
2018-10-07T17:31:29.872Z,44.17
2018-10-07T17:33:58.612Z,44.43
2018-10-07T17:36:27.325Z,44.20
2018-10-07T17:38:56.028Z,44.33
2018-10-07T17:41:24.776Z,46.37
2018-10-07T17:43:53.506Z,44.50
2018-10-07T17:46:22.220Z,44.43
2018-10-07T17:48:51.027Z,44.27
2018-10-07T17:51:19.663Z,44.00
2018-10-07T17:53:48.397Z,44.77
2018-10-07T17:56:17.101Z,44.00
2018-10-07T17:58:45.831Z,45.97
2018-10-07T18:01:14.577Z,45.07
2018-10-07T18:03:43.292Z,46.00
2018-10-07T18:06:12.008Z,48.50
2018-10-07T18:08:40.727Z,46.27
2018-10-07T18:11:09.450Z,46.00
2018-10-07T18:13:38.152Z,48.57
2018-10-07T18:16:06.884Z,49.80
2018-10-07T18:18:35.808Z,46.80
2018-10-07T18:21:04.616Z,54.30
2018-10-07T18:23:33.503Z,52.07
2018-10-07T18:26:02.312Z,49.27
2018-10-07T18:28:31.027Z,47.10
2018-10-07T18:30:59.752Z,47.23
2018-10-07T18:33:28.449Z,50.10
2018-10-07T18:35:57.259Z,50.77
2018-10-07T18:38:25.976Z,49.07
2018-10-07T18:40:54.703Z,53.00
2018-10-07T18:43:23.427Z,50.03
2018-10-07T18:45:52.191Z,51.97
2018-10-07T18:48:20.887Z,47.97
2018-10-07T18:50:49.615Z,49.53
2018-10-07T18:53:18.323Z,47.73
2018-10-07T18:55:47.039Z,54.23
2018-10-07T18:58:15.747Z,50.10
2018-10-07T19:00:44.491Z,50.73
2018-10-07T19:03:13.214Z,54.67
2018-10-07T19:05:41.939Z,52.57
2018-10-07T19:08:10.668Z,51.03
2018-10-07T19:10:39.388Z,48.67
2018-10-07T19:13:08.115Z,47.40
2018-10-07T19:15:36.832Z,47.97
2018-10-07T19:18:05.823Z,47.93
2018-10-07T19:20:34.523Z,47.77
2018-10-07T19:23:03.249Z,47.63
2018-10-07T19:25:31.959Z,49.87
2018-10-07T19:28:00.685Z,47.73
2018-10-07T19:30:29.397Z,54.20
2018-10-07T19:32:58.113Z,49.37
2018-10-07T19:35:26.941Z,48.17
2018-10-07T19:37:55.658Z,48.60
2018-10-07T19:40:24.363Z,48.73
2018-10-07T19:42:53.098Z,48.27
2018-10-07T19:45:21.840Z,49.13
2018-10-07T19:47:50.529Z,47.97
2018-10-07T19:50:19.241Z,46.37
2018-10-07T19:52:47.961Z,48.30
2018-10-07T19:55:16.672Z,51.60
2018-10-07T19:57:45.537Z,47.53
2018-10-07T20:00:14.508Z,46.43
2018-10-07T20:02:43.225Z,46.93
2018-10-07T20:05:11.951Z,48.20
2018-10-07T20:07:40.663Z,47.97
2018-10-07T20:10:09.429Z,47.97
2018-10-07T20:12:38.142Z,48.80
2018-10-07T20:15:06.865Z,46.37
2018-10-07T20:17:35.712Z,48.80
2018-10-07T20:20:04.441Z,47.47
2018-10-07T20:22:33.159Z,48.57
2018-10-07T20:25:01.885Z,48.47
2018-10-07T20:27:30.589Z,46.40
2018-10-07T20:29:59.319Z,48.07
2018-10-07T20:32:28.023Z,46.60
2018-10-07T20:34:56.753Z,46.27
2018-10-07T20:37:25.470Z,46.17
2018-10-07T20:39:54.191Z,46.93
2018-10-07T20:42:23.105Z,48.70
2018-10-07T20:44:51.824Z,45.93
2018-10-07T20:47:20.541Z,44.80
2018-10-07T20:49:49.456Z,48.57
2018-10-07T20:52:18.183Z,45.80
2018-10-07T20:54:46.872Z,50.20
2018-10-07T20:57:15.588Z,45.30
2018-10-07T20:59:44.300Z,45.90
2018-10-07T21:02:13.040Z,46.10
2018-10-07T21:04:41.760Z,45.53
2018-10-07T21:07:10.473Z,44.90
2018-10-07T21:09:39.198Z,47.43
2018-10-07T21:12:07.917Z,45.13
2018-10-07T21:14:36.624Z,45.37
2018-10-07T21:17:05.588Z,46.23
2018-10-07T21:19:34.216Z,47.53
2018-10-07T21:22:02.940Z,45.23
2018-10-07T21:24:31.643Z,45.80
2018-10-07T21:27:00.360Z,46.73
2018-10-07T21:29:29.068Z,46.33
2018-10-07T21:31:57.784Z,47.40
2018-10-07T21:34:26.515Z,44.97
2018-10-07T21:36:55.278Z,45.23
2018-10-07T21:39:23.948Z,52.10
2018-10-07T21:41:52.744Z,44.70
2018-10-07T21:44:21.376Z,48.30
2018-10-07T21:46:50.096Z,45.63
2018-10-07T21:49:18.800Z,60.33
2018-10-07T21:51:47.516Z,48.10
2018-10-07T21:54:16.236Z,44.63
2018-10-07T21:56:44.941Z,47.03
2018-10-07T21:59:13.700Z,45.03
2018-10-07T22:01:42.432Z,44.77
2018-10-07T22:04:11.154Z,55.27
2018-10-07T22:06:39.856Z,49.97
2018-10-07T22:09:08.980Z,45.83
2018-10-07T22:11:37.677Z,44.97
2018-10-07T22:14:06.424Z,45.47
2018-10-07T22:16:35.128Z,47.57
2018-10-07T22:19:03.828Z,48.10
2018-10-07T22:21:32.556Z,44.80
2018-10-07T22:24:01.264Z,50.07
2018-10-07T22:26:29.976Z,44.90
2018-10-07T22:28:58.709Z,46.63
2018-10-07T22:31:27.406Z,45.30
2018-10-07T22:33:56.119Z,44.37
2018-10-07T22:36:24.832Z,44.70
2018-10-07T22:38:53.536Z,53.97
2018-10-07T22:41:22.344Z,44.70
2018-10-07T22:43:51.064Z,45.20
2018-10-07T22:46:20.072Z,43.70
2018-10-07T22:48:48.978Z,45.53
2018-10-07T22:51:17.715Z,46.20
2018-10-07T22:53:46.427Z,44.63
2018-10-07T22:56:15.148Z,51.33
2018-10-07T22:58:43.863Z,44.20
2018-10-07T23:01:12.628Z,48.47
2018-10-07T23:03:41.360Z,45.80
2018-10-07T23:06:10.067Z,44.57
2018-10-07T23:08:38.771Z,43.90
2018-10-07T23:11:07.497Z,46.47
2018-10-07T23:13:36.216Z,44.13
2018-10-07T23:16:04.952Z,44.43
2018-10-07T23:18:33.732Z,44.43
2018-10-07T23:21:02.460Z,43.97
2018-10-07T23:23:31.196Z,44.03
2018-10-07T23:25:59.911Z,47.57
2018-10-07T23:28:28.632Z,45.60
2018-10-07T23:30:57.352Z,43.60
2018-10-07T23:33:26.073Z,43.97
2018-10-07T23:35:54.781Z,44.03
2018-10-07T23:38:23.492Z,44.03
2018-10-07T23:40:53.640Z,44.03
2018-10-07T23:43:22.362Z,45.13
2018-10-07T23:45:51.807Z,43.60
2018-10-07T23:48:20.508Z,43.07
2018-10-07T23:50:49.220Z,43.37
2018-10-07T23:53:17.915Z,44.50
2018-10-07T23:55:46.632Z,44.83
2018-10-07T23:58:15.347Z,43.70
